TimeCST,TemperatureF,Dew PointF,Humidity,Sea Level PressureIn,VisibilityMPH,Wind Direction,Wind SpeedMPH,Gust SpeedMPH,PrecipitationIn,Events,Conditions,WindDirDegrees,DateUTC
12:13 AM,32.0,28.4,87,30.17,10.0,West,6.9,-,N/A,,Overcast,260,2013-11-07 06:13:00
12:32 AM,30.2,28.4,93,30.17,10.0,West,8.1,-,N/A,,Overcast,270,2013-11-07 06:32:00
12:52 AM,30.2,28.4,93,30.17,10.0,West,8.1,-,N/A,,Overcast,260,2013-11-07 06:52:00
1:12 AM,32.0,28.4,87,30.17,10.0,West,9.2,-,N/A,,Overcast,270,2013-11-07 07:12:00
1:32 AM,30.2,28.4,93,30.17,10.0,West,9.2,-,N/A,,Overcast,270,2013-11-07 07:32:00
1:52 AM,30.2,28.4,93,30.18,10.0,West,9.2,-,N/A,,Overcast,260,2013-11-07 07:52:00
2:12 AM,30.2,28.4,93,30.18,10.0,WSW,8.1,-,N/A,,Overcast,250,2013-11-07 08:12:00
2:32 AM,28.4,26.6,93,30.18,10.0,WSW,8.1,-,N/A,,Scattered Clouds,250,2013-11-07 08:32:00
2:52 AM,26.6,24.8,93,30.18,10.0,West,8.1,-,N/A,,Clear,260,2013-11-07 08:52:00
3:12 AM,24.8,24.8,100,30.18,10.0,WSW,8.1,-,N/A,,Clear,250,2013-11-07 09:12:00
3:33 AM,24.8,24.8,100,30.18,10.0,West,8.1,-,N/A,,Clear,260,2013-11-07 09:33:00
3:52 AM,23.0,21.2,93,30.18,10.0,West,8.1,-,N/A,,Clear,260,2013-11-07 09:52:00
4:12 AM,24.8,23.0,93,30.18,7.0,West,10.4,-,N/A,,Mostly Cloudy,260,2013-11-07 10:12:00
4:33 AM,26.6,26.6,100,30.19,0.5,West,11.5,-,N/A,Fog,Light Freezing Fog,260,2013-11-07 10:33:00
4:52 AM,26.6,26.6,100,30.19,0.2,West,10.4,-,N/A,Fog,Light Freezing Fog,260,2013-11-07 10:52:00
5:12 AM,26.6,26.6,100,30.19,0.5,West,6.9,-,N/A,Fog,Light Freezing Fog,260,2013-11-07 11:12:00
5:33 AM,26.6,26.6,100,30.20,0.2,WSW,9.2,-,N/A,Snow,Light Snow,250,2013-11-07 11:33:00
5:52 AM,26.6,26.6,100,30.20,0.2,WSW,6.9,-,N/A,Snow,Light Snow,240,2013-11-07 11:52:00
6:12 AM,26.6,26.6,100,30.20,0.2,WSW,8.1,-,N/A,Snow,Light Snow,250,2013-11-07 12:12:00
6:33 AM,26.6,24.8,93,30.21,0.5,WSW,10.4,-,N/A,Snow,Light Snow,250,2013-11-07 12:33:00
6:52 AM,24.8,24.8,100,30.22,0.5,WSW,9.2,-,N/A,Snow,Light Snow,240,2013-11-07 12:52:00
7:12 AM,24.8,24.8,100,30.23,4.0,WSW,6.9,-,N/A,,Mostly Cloudy,240,2013-11-07 13:12:00
7:33 AM,24.8,23.0,93,30.23,10.0,WSW,6.9,-,N/A,,Clear,250,2013-11-07 13:33:00
7:52 AM,24.8,23.0,93,30.23,10.0,WSW,6.9,-,N/A,,Clear,240,2013-11-07 13:52:00
8:12 AM,24.8,23.0,93,30.24,10.0,SW,6.9,-,N/A,,Clear,230,2013-11-07 14:12:00
8:33 AM,24.8,24.8,100,30.26,10.0,West,9.2,-,N/A,,Clear,260,2013-11-07 14:33:00
8:52 AM,26.6,24.8,93,30.26,10.0,West,10.4,-,N/A,,Clear,260,2013-11-07 14:52:00
9:12 AM,26.6,26.6,100,30.26,10.0,West,9.2,-,N/A,,Clear,270,2013-11-07 15:12:00
9:33 AM,28.4,26.6,93,30.26,10.0,West,12.7,-,N/A,,Clear,270,2013-11-07 15:33:00
9:52 AM,30.2,26.6,86,30.26,10.0,West,11.5,-,N/A,,Clear,280,2013-11-07 15:52:00
10:12 AM,30.2,24.8,80,30.27,10.0,WNW,15.0,-,N/A,,Clear,290,2013-11-07 16:12:00
10:33 AM,30.2,26.6,86,30.27,10.0,West,15.0,-,N/A,,Clear,280,2013-11-07 16:33:00
10:52 AM,33.8,26.6,75,30.28,10.0,West,15.0,-,N/A,,Clear,280,2013-11-07 16:52:00
11:12 AM,33.8,26.6,75,30.28,10.0,West,16.1,-,N/A,,Clear,280,2013-11-07 17:12:00
11:33 AM,35.6,26.6,70,30.28,10.0,West,12.7,-,N/A,,Clear,280,2013-11-07 17:33:00
11:52 AM,35.6,26.6,70,30.27,10.0,WNW,15.0,-,N/A,,Clear,290,2013-11-07 17:52:00
12:12 PM,35.6,26.6,70,30.27,10.0,West,16.1,-,N/A,,Clear,280,2013-11-07 18:12:00
12:33 PM,35.6,24.8,65,30.27,10.0,West,13.8,-,N/A,,Clear,270,2013-11-07 18:33:00
12:52 PM,35.6,24.8,65,30.27,10.0,West,11.5,-,N/A,,Scattered Clouds,260,2013-11-07 18:52:00
1:13 PM,35.6,21.2,56,30.27,10.0,West,12.7,-,N/A,,Scattered Clouds,270,2013-11-07 19:13:00
1:32 PM,35.6,24.8,65,30.26,10.0,WSW,11.5,-,N/A,,Clear,250,2013-11-07 19:32:00
1:52 PM,35.6,24.8,65,30.26,10.0,WSW,12.7,-,N/A,,Clear,240,2013-11-07 19:52:00
2:13 PM,35.6,26.6,70,30.25,10.0,WSW,11.5,-,N/A,,Clear,250,2013-11-07 20:13:00
2:32 PM,35.6,24.8,65,30.25,10.0,WSW,12.7,-,N/A,,Clear,240,2013-11-07 20:32:00
2:52 PM,37.4,26.6,65,30.24,10.0,SW,12.7,-,N/A,,Clear,230,2013-11-07 20:52:00
3:13 PM,35.6,26.6,70,30.24,10.0,WSW,12.7,-,N/A,,Clear,240,2013-11-07 21:13:00
3:32 PM,35.6,26.6,70,30.23,10.0,WSW,11.5,-,N/A,,Clear,240,2013-11-07 21:32:00
3:52 PM,35.6,26.6,70,30.24,10.0,SW,12.7,-,N/A,,Clear,230,2013-11-07 21:52:00
4:13 PM,35.6,26.6,70,30.23,10.0,SW,9.2,-,N/A,,Clear,230,2013-11-07 22:13:00
4:32 PM,35.6,26.6,70,30.22,10.0,WSW,11.5,-,N/A,,Clear,240,2013-11-07 22:32:00
4:52 PM,33.8,26.6,75,30.22,10.0,SW,9.2,-,N/A,,Clear,230,2013-11-07 22:52:00
5:12 PM,33.8,26.6,75,30.22,10.0,WSW,11.5,-,N/A,,Clear,240,2013-11-07 23:12:00
5:32 PM,33.8,26.6,75,30.22,10.0,SW,13.8,-,N/A,,Clear,230,2013-11-07 23:32:00
5:53 PM,32.0,24.8,75,30.22,10.0,WSW,11.5,-,N/A,,Clear,240,2013-11-07 23:53:00
6:12 PM,32.0,24.8,75,30.22,10.0,SW,15.0,19.6,N/A,,Clear,230,2013-11-08 00:12:00
6:32 PM,30.2,26.6,86,30.22,10.0,SW,10.4,-,N/A,,Clear,230,2013-11-08 00:32:00
6:53 PM,30.2,26.6,86,30.22,10.0,SW,10.4,-,N/A,,Clear,230,2013-11-08 00:53:00
7:12 PM,30.2,26.6,86,30.22,10.0,SW,10.4,-,N/A,,Clear,230,2013-11-08 01:12:00
7:32 PM,30.2,26.6,86,30.22,10.0,SW,10.4,-,N/A,,Clear,230,2013-11-08 01:32:00
7:53 PM,30.2,26.6,86,30.21,10.0,SW,11.5,-,N/A,,Clear,230,2013-11-08 01:53:00
8:12 PM,30.2,26.6,86,30.22,10.0,WSW,9.2,-,N/A,,Clear,240,2013-11-08 02:12:00
8:32 PM,30.2,26.6,86,30.22,10.0,SW,10.4,-,N/A,,Clear,230,2013-11-08 02:32:00
8:52 PM,30.2,26.6,86,30.21,10.0,WSW,10.4,-,N/A,,Clear,240,2013-11-08 02:52:00
9:12 PM,30.2,26.6,86,30.22,10.0,SW,9.2,-,N/A,,Clear,230,2013-11-08 03:12:00
9:33 PM,30.2,24.8,80,30.21,10.0,SW,8.1,-,N/A,,Clear,230,2013-11-08 03:33:00
9:52 PM,30.2,24.8,80,30.21,10.0,SW,8.1,-,N/A,,Clear,230,2013-11-08 03:52:00
10:12 PM,30.2,24.8,80,30.20,10.0,SW,8.1,-,N/A,,Clear,230,2013-11-08 04:12:00
10:33 PM,30.2,24.8,80,30.20,10.0,SW,8.1,-,N/A,,Clear,230,2013-11-08 04:33:00
10:52 PM,28.4,24.8,86,30.19,10.0,SW,8.1,-,N/A,,Clear,230,2013-11-08 04:52:00
11:12 PM,28.4,24.8,86,30.18,10.0,WSW,4.6,-,N/A,,Clear,240,2013-11-08 05:12:00
11:33 PM,28.4,24.8,86,30.18,10.0,SW,6.9,-,N/A,,Clear,220,2013-11-08 05:33:00
11:52 PM,28.4,24.8,86,30.18,10.0,SW,5.8,-,N/A,,Clear,220,2013-11-08 05:52:00